Terminal Aerodrome Forecast
Issued by NWS Wilmington, OH

Current Version | Previous Version | Text Only | Print | Product List | Glossary Off
Versions: 1 2 3 4 5 6 7 8 9 10 11 12 13 14 15 16 17 18 19 20 21 22

000
FTUS41 KILN 280533
TAFILN
TAF
KILN 280533Z 2806/2906 00000KT P6SM BKN130
     FM280900 33003KT 5SM BR SCT025
     FM281300 02004KT P6SM SCT120 BKN250
     FM281500 02006KT P6SM SCT040 BKN250
     FM290000 03004KT P6SM SCT130=

USA.gov is the U.S. government's official web portal to all federal, state and local government web resources and services.